createdAt,value
2023-02-08T00:01:40.351Z,101599.77
2023-02-08T00:04:09.115Z,101603.44
2023-02-08T00:06:37.477Z,101608.00
2023-02-08T00:09:07.435Z,101610.27
2023-02-08T00:11:36.191Z,101611.70
2023-02-08T00:14:04.555Z,101612.43
2023-02-08T00:16:33.563Z,101610.69
2023-02-08T00:19:01.883Z,101610.86
2023-02-08T00:21:30.348Z,101610.16
2023-02-08T00:23:58.683Z,101604.80
2023-02-08T00:26:27.029Z,101609.36
2023-02-08T00:28:55.491Z,101609.91
2023-02-08T00:31:23.969Z,101613.40
2023-02-08T00:33:52.305Z,101616.92
2023-02-08T00:36:21.060Z,101617.50
2023-02-08T00:38:49.394Z,101613.52
2023-02-08T00:41:17.783Z,101608.51
2023-02-08T00:43:49.514Z,101614.61
2023-02-08T00:46:17.961Z,101612.20
2023-02-08T00:48:46.385Z,101616.05
2023-02-08T00:51:15.547Z,101616.96
2023-02-08T00:53:45.980Z,101619.94
2023-02-08T00:56:16.045Z,101618.77
2023-02-08T00:58:44.558Z,101619.33
2023-02-08T01:01:13.904Z,101618.63
2023-02-08T01:03:45.694Z,101622.48
2023-02-08T01:06:18.201Z,101623.91
2023-02-08T01:08:47.004Z,101622.53
2023-02-08T01:11:21.981Z,101627.09
2023-02-08T01:13:51.239Z,101627.65
2023-02-08T01:16:23.004Z,101633.23
2023-02-08T01:18:53.415Z,101627.27
2023-02-08T01:21:25.028Z,101626.73
2023-02-08T01:23:54.103Z,101617.77
2023-02-08T01:26:23.853Z,101619.52
2023-02-08T01:28:54.147Z,101625.81
2023-02-08T01:31:26.407Z,101626.51
2023-02-08T01:33:56.596Z,101631.07
2023-02-08T01:36:26.566Z,101629.12
2023-02-08T01:38:55.537Z,101627.35
2023-02-08T01:41:43.889Z,101635.74
2023-02-08T01:44:12.171Z,101635.77
2023-02-08T01:46:41.931Z,101631.98
2023-02-08T01:49:29.106Z,101631.80
2023-02-08T01:52:00.551Z,101632.52
2023-02-08T01:54:37.321Z,101634.28
2023-02-08T01:57:07.033Z,101636.34
2023-02-08T01:59:54.977Z,101634.77
2023-02-08T02:02:25.510Z,101640.67
2023-02-08T02:04:55.898Z,101642.41
2023-02-08T02:07:28.745Z,101640.52
2023-02-08T02:10:06.008Z,101641.75
2023-02-08T02:12:37.809Z,101642.45
2023-02-08T02:15:07.728Z,101644.02
2023-02-08T02:17:38.260Z,101647.50
2023-02-08T02:20:24.336Z,101642.62
2023-02-08T02:23:11.506Z,101647.30
2023-02-08T02:25:51.925Z,101646.08
2023-02-08T02:28:35.378Z,101647.10
2023-02-08T02:31:39.691Z,101651.66
2023-02-08T02:34:08.012Z,101649.39
2023-02-08T02:36:49.219Z,101648.19
2023-02-08T02:39:34.333Z,101648.91
2023-02-08T02:43:07.479Z,101652.06
2023-02-08T02:46:17.423Z,101652.95
2023-02-08T02:48:53.193Z,101658.54
2023-02-08T02:51:30.511Z,101662.54
2023-02-08T02:54:21.131Z,101662.14
2023-02-08T02:56:56.039Z,101661.95
2023-02-08T02:59:26.499Z,101664.05
2023-02-08T03:01:56.686Z,101667.02
2023-02-08T03:04:34.562Z,101667.23
2023-02-08T03:07:17.937Z,101665.48
2023-02-08T03:10:08.028Z,101657.41
2023-02-08T03:12:44.343Z,101657.34
2023-02-08T03:15:29.160Z,101652.55
2023-02-08T03:18:14.928Z,101644.74
2023-02-08T03:21:00.848Z,101642.02
2023-02-08T03:23:37.246Z,101650.30
2023-02-08T03:26:28.752Z,101655.54
2023-02-08T03:29:18.648Z,101667.35
2023-02-08T03:32:17.272Z,101672.89
2023-02-08T03:34:57.348Z,101675.81
2023-02-08T03:37:51.973Z,101682.39
2023-02-08T03:40:25.817Z,101679.79
2023-02-08T03:42:58.690Z,101686.95
2023-02-08T03:45:33.507Z,101691.16
2023-02-08T03:48:06.956Z,101694.12
2023-02-08T03:50:40.042Z,101692.95
2023-02-08T03:53:10.753Z,101689.84
2023-02-08T03:55:41.162Z,101684.64
2023-02-08T03:58:46.923Z,101678.98
2023-02-08T04:01:27.301Z,101678.15
2023-02-08T04:03:57.501Z,101678.36
2023-02-08T04:06:26.095Z,101674.34
2023-02-08T04:08:54.340Z,101673.28
2023-02-08T04:11:22.683Z,101677.14
2023-02-08T04:13:51.032Z,101678.91
2023-02-08T04:16:19.332Z,101682.95
2023-02-08T04:18:47.638Z,101684.67
2023-02-08T04:21:17.177Z,101680.66
2023-02-08T04:23:45.484Z,101685.17
2023-02-08T04:26:13.803Z,101688.27
2023-02-08T04:28:42.277Z,101694.54
2023-02-08T04:31:10.803Z,101693.20
2023-02-08T04:33:39.193Z,101696.38
2023-02-08T04:36:07.869Z,101698.66
2023-02-08T04:38:36.227Z,101696.44
2023-02-08T04:41:04.707Z,101685.66
2023-02-08T04:43:33.093Z,101687.23
2023-02-08T04:46:01.506Z,101692.46
2023-02-08T04:48:30.150Z,101702.20
2023-02-08T04:50:58.966Z,101687.38
2023-02-08T04:53:27.488Z,101685.25
2023-02-08T04:55:55.871Z,101687.33
2023-02-08T04:58:24.372Z,101685.55
2023-02-08T05:00:52.852Z,101689.35
2023-02-08T05:03:21.258Z,101692.48
2023-02-08T05:06:00.445Z,101688.45
2023-02-08T05:08:29.297Z,101699.08
2023-02-08T05:10:57.888Z,101702.59
2023-02-08T05:13:26.181Z,101707.86
2023-02-08T05:15:54.631Z,101705.77
2023-02-08T05:18:23.223Z,101711.02
2023-02-08T05:20:59.996Z,101709.84
2023-02-08T05:23:28.666Z,101710.18
2023-02-08T05:25:57.336Z,101715.98
2023-02-08T05:28:26.130Z,101716.00
2023-02-08T05:30:54.729Z,101723.55
2023-02-08T05:33:23.666Z,101720.11
2023-02-08T05:35:51.978Z,101718.15
2023-02-08T05:38:20.379Z,101724.39
2023-02-08T05:40:48.618Z,101726.31
2023-02-08T05:43:17.649Z,101728.58
2023-02-08T05:45:45.943Z,101730.71
2023-02-08T05:48:14.401Z,101734.00
2023-02-08T05:50:43.215Z,101733.63
2023-02-08T05:53:11.700Z,101739.73
2023-02-08T05:55:39.974Z,101742.48
2023-02-08T05:58:08.340Z,101742.14
2023-02-08T06:00:36.818Z,101753.77
2023-02-08T06:03:05.191Z,101758.49
2023-02-08T06:05:34.106Z,101765.81
2023-02-08T06:08:02.609Z,101774.15
2023-02-08T06:10:31.079Z,101776.05
2023-02-08T06:12:59.736Z,101773.92
2023-02-08T06:15:28.470Z,101772.48
2023-02-08T06:17:57.304Z,101771.23
2023-02-08T06:20:25.862Z,101781.85
2023-02-08T06:22:56.546Z,101786.61
2023-02-08T06:25:24.873Z,101783.14
2023-02-08T06:27:54.307Z,101784.73
2023-02-08T06:30:24.091Z,101781.25
2023-02-08T06:32:52.828Z,101786.70
2023-02-08T06:35:21.280Z,101790.58
2023-02-08T06:37:49.900Z,101787.98
2023-02-08T06:40:18.412Z,101795.33
2023-02-08T06:42:48.079Z,101799.88
2023-02-08T06:45:17.565Z,101804.77
2023-02-08T06:47:45.899Z,101807.03
2023-02-08T06:50:15.475Z,101804.79
2023-02-08T06:52:44.758Z,101804.67
2023-02-08T06:55:14.154Z,101815.20
2023-02-08T06:57:42.567Z,101819.98
2023-02-08T07:00:15.488Z,101816.52
2023-02-08T07:02:43.957Z,101815.85
2023-02-08T07:05:12.806Z,101809.11
2023-02-08T07:07:42.571Z,101815.28
2023-02-08T07:10:10.982Z,101818.83
2023-02-08T07:12:39.514Z,101819.20
2023-02-08T07:15:13.333Z,101815.02
2023-02-08T07:17:41.719Z,101822.17
2023-02-08T07:20:11.705Z,101818.00
2023-02-08T07:22:40.588Z,101815.80
2023-02-08T07:25:09.671Z,101815.34
2023-02-08T07:27:38.284Z,101822.92
2023-02-08T07:30:08.283Z,101823.66
2023-02-08T07:32:36.695Z,101818.14
2023-02-08T07:35:05.310Z,101816.08
2023-02-08T07:37:33.954Z,101816.65
2023-02-08T07:40:02.417Z,101816.23
2023-02-08T07:42:30.751Z,101814.40
2023-02-08T07:45:16.244Z,101815.55
2023-02-08T07:47:46.856Z,101818.25
2023-02-08T07:50:16.660Z,101816.94
2023-02-08T07:52:46.499Z,101824.35
2023-02-08T07:55:18.864Z,101825.30
2023-02-08T07:57:49.342Z,101819.81
2023-02-08T08:00:19.113Z,101817.11
2023-02-08T08:02:50.667Z,101814.77
2023-02-08T08:05:19.286Z,101816.27
2023-02-08T08:07:48.145Z,101816.48
2023-02-08T08:10:16.538Z,101810.77
2023-02-08T08:12:44.835Z,101811.23
2023-02-08T08:15:13.295Z,101818.09
2023-02-08T08:17:42.430Z,101824.58
2023-02-08T08:20:11.826Z,101824.39
2023-02-08T08:22:40.216Z,101831.90
2023-02-08T08:25:08.756Z,101832.92
2023-02-08T08:27:37.768Z,101836.97
2023-02-08T08:30:08.463Z,101835.31
2023-02-08T08:32:38.539Z,101833.63
2023-02-08T08:35:08.496Z,101836.81
2023-02-08T08:37:37.590Z,101843.69
2023-02-08T08:40:07.894Z,101845.82
2023-02-08T08:42:37.013Z,101843.90
2023-02-08T08:45:06.486Z,101853.88
2023-02-08T08:47:35.163Z,101858.78
2023-02-08T08:50:03.908Z,101856.66
2023-02-08T08:52:32.305Z,101856.99
2023-02-08T08:55:00.646Z,101858.22
2023-02-08T08:57:29.151Z,101860.33
2023-02-08T08:59:57.621Z,101865.77
2023-02-08T09:02:30.625Z,101869.45
2023-02-08T09:05:00.899Z,101865.45
2023-02-08T09:07:29.419Z,101860.39
2023-02-08T09:09:57.845Z,101864.45
2023-02-08T09:12:31.339Z,101866.20
2023-02-08T09:14:59.715Z,101867.26
2023-02-08T09:17:28.619Z,101865.14
2023-02-08T09:19:57.195Z,101863.75
2023-02-08T09:22:25.567Z,101867.27
2023-02-08T09:24:54.213Z,101867.96
2023-02-08T09:27:22.739Z,101867.43
2023-02-08T09:29:51.150Z,101866.20
2023-02-08T09:32:21.304Z,101868.67
2023-02-08T09:34:49.867Z,101868.48
2023-02-08T09:37:21.048Z,101866.20
2023-02-08T09:39:49.578Z,101871.80
2023-02-08T09:42:42.386Z,101878.79
2023-02-08T09:45:22.846Z,101879.33
2023-02-08T09:48:10.984Z,101877.23
2023-02-08T09:50:48.830Z,101873.23
2023-02-08T09:53:30.741Z,101871.30
2023-02-08T09:56:02.072Z,101874.98
2023-02-08T09:58:54.068Z,101872.71
2023-02-08T10:01:30.060Z,101864.81
2023-02-08T10:04:28.925Z,101863.77
2023-02-08T10:06:57.465Z,101863.40
2023-02-08T10:09:27.454Z,101860.94
2023-02-08T10:12:19.852Z,101857.24
2023-02-08T10:15:07.010Z,101853.38
2023-02-08T10:18:06.515Z,101853.36
2023-02-08T10:20:37.664Z,101853.19
2023-02-08T10:23:17.248Z,101849.48
2023-02-08T10:26:11.063Z,101849.65
2023-02-08T10:28:42.491Z,101847.10
2023-02-08T10:31:20.346Z,101849.33
2023-02-08T10:33:55.219Z,101848.76
2023-02-08T10:36:26.981Z,101850.05
2023-02-08T10:38:56.966Z,101847.16
2023-02-08T10:41:32.243Z,101850.90
2023-02-08T10:44:14.538Z,101847.77
2023-02-08T10:47:20.685Z,101847.65
2023-02-08T10:50:35.891Z,101853.45
2023-02-08T10:53:07.898Z,101848.61
2023-02-08T10:55:48.092Z,101853.57
2023-02-08T10:58:20.203Z,101853.41
2023-02-08T11:00:52.098Z,101850.77
2023-02-08T11:03:27.269Z,101843.05
2023-02-08T11:05:58.797Z,101839.70
2023-02-08T11:08:29.034Z,101834.61
2023-02-08T11:11:07.793Z,101838.09
2023-02-08T11:13:39.786Z,101834.39
2023-02-08T11:16:12.692Z,101834.22
2023-02-08T11:18:49.188Z,101831.56
2023-02-08T11:21:29.461Z,101831.73
2023-02-08T11:23:58.530Z,101830.33
2023-02-08T11:26:40.074Z,101834.71
2023-02-08T11:29:17.608Z,101834.20
2023-02-08T11:31:55.216Z,101836.31
2023-02-08T11:34:28.459Z,101839.96
2023-02-08T11:36:59.492Z,101835.75
2023-02-08T11:39:54.459Z,101833.27
2023-02-08T11:42:29.854Z,101828.91
2023-02-08T11:44:59.963Z,101825.06
2023-02-08T11:47:34.449Z,101822.79
2023-02-08T11:50:06.775Z,101823.14
2023-02-08T11:52:43.420Z,101820.57
2023-02-08T11:55:17.715Z,101814.29
2023-02-08T11:58:19.227Z,101804.90
2023-02-08T12:01:21.697Z,101800.45
2023-02-08T12:03:51.103Z,101799.77
2023-02-08T12:06:28.729Z,101801.25
2023-02-08T12:09:12.700Z,101796.48
2023-02-08T12:11:47.462Z,101797.70
2023-02-08T12:14:27.747Z,101797.03
2023-02-08T12:17:23.303Z,101798.34
2023-02-08T12:20:23.305Z,101791.86
2023-02-08T12:23:03.504Z,101787.91
2023-02-08T12:25:31.908Z,101787.77
2023-02-08T12:28:42.528Z,101780.74
2023-02-08T12:31:38.844Z,101773.27
2023-02-08T12:34:36.775Z,101768.02
2023-02-08T12:37:53.584Z,101764.10
2023-02-08T12:40:51.112Z,101765.61
2023-02-08T12:43:52.033Z,101761.89
2023-02-08T12:46:23.481Z,101758.30
2023-02-08T12:49:04.197Z,101756.08
2023-02-08T12:51:57.140Z,101752.64
2023-02-08T12:54:54.230Z,101753.33
2023-02-08T12:57:27.251Z,101757.55
2023-02-08T13:00:36.927Z,101759.02
2023-02-08T13:03:11.467Z,101755.44
2023-02-08T13:05:53.472Z,101755.66
2023-02-08T13:08:50.556Z,101752.97
2023-02-08T13:12:04.589Z,101750.36
2023-02-08T13:14:57.492Z,101751.11
2023-02-08T13:17:55.203Z,101743.79
2023-02-08T13:20:43.914Z,101742.80
2023-02-08T13:23:52.096Z,101746.20
2023-02-08T13:26:33.308Z,101741.66
2023-02-08T13:29:03.040Z,101742.25
2023-02-08T13:31:54.043Z,101737.89
2023-02-08T13:34:31.536Z,101735.23
2023-02-08T13:37:08.840Z,101738.02
2023-02-08T13:39:46.355Z,101740.64
2023-02-08T13:42:20.799Z,101739.93
2023-02-08T13:44:55.701Z,101739.55
2023-02-08T13:47:26.883Z,101741.93
2023-02-08T13:50:01.966Z,101738.61
2023-02-08T13:52:46.498Z,101735.47
2023-02-08T13:55:36.212Z,101734.28
2023-02-08T13:58:06.075Z,101733.66
2023-02-08T14:00:36.888Z,101732.16
2023-02-08T14:03:08.638Z,101731.52
2023-02-08T14:05:49.086Z,101727.89
2023-02-08T14:09:06.516Z,101726.88
2023-02-08T14:11:49.794Z,101731.67
2023-02-08T14:14:26.505Z,101732.23
2023-02-08T14:17:19.794Z,101735.73
2023-02-08T14:19:59.123Z,101737.32
2023-02-08T14:22:34.966Z,101738.71
2023-02-08T14:25:18.030Z,101742.39
2023-02-08T14:27:56.756Z,101741.33
2023-02-08T14:30:31.397Z,101742.89
2023-02-08T14:33:09.401Z,101743.56
2023-02-08T14:35:42.791Z,101746.70
2023-02-08T14:38:20.764Z,101751.92
2023-02-08T14:40:58.062Z,101752.61
2023-02-08T14:43:43.190Z,101755.92
2023-02-08T14:46:40.354Z,101750.12
2023-02-08T14:49:19.414Z,101753.60
2023-02-08T14:52:07.686Z,101758.14
2023-02-08T14:54:46.310Z,101756.89
2023-02-08T14:57:28.139Z,101764.73
2023-02-08T15:00:00.784Z,101765.02
2023-02-08T15:02:31.592Z,101763.96
2023-02-08T15:05:02.458Z,101770.77
2023-02-08T15:07:54.377Z,101771.80
2023-02-08T15:10:25.011Z,101768.27
2023-02-08T15:13:06.720Z,101767.18
2023-02-08T15:15:44.152Z,101765.04
2023-02-08T15:18:20.551Z,101764.79
2023-02-08T15:21:05.032Z,101767.16
2023-02-08T15:23:33.645Z,101764.10
2023-02-08T15:26:05.071Z,101769.26
2023-02-08T15:28:37.045Z,101765.30
2023-02-08T15:31:12.036Z,101758.55
2023-02-08T15:33:43.613Z,101755.29
2023-02-08T15:36:17.149Z,101759.50
2023-02-08T15:38:45.968Z,101762.00
2023-02-08T15:41:23.952Z,101760.00
2023-02-08T15:44:16.096Z,101761.86
2023-02-08T15:46:46.535Z,101768.43
2023-02-08T15:49:18.336Z,101767.45
2023-02-08T15:51:48.049Z,101768.70
2023-02-08T15:54:20.032Z,101766.50
2023-02-08T15:57:19.173Z,101768.98
2023-02-08T15:59:48.881Z,101769.17
2023-02-08T16:02:22.327Z,101769.02
2023-02-08T16:04:51.411Z,101769.89
2023-02-08T16:07:34.982Z,101776.38
2023-02-08T16:10:06.311Z,101778.29
2023-02-08T16:12:36.270Z,101777.74
2023-02-08T16:15:04.989Z,101778.77
2023-02-08T16:17:44.388Z,101777.88
2023-02-08T16:20:35.964Z,101776.65
2023-02-08T16:26:43.474Z,101776.40
2023-02-08T16:29:24.100Z,101778.02
2023-02-08T16:32:03.791Z,101778.29
2023-02-08T16:34:36.219Z,101782.63
2023-02-08T16:37:20.841Z,101789.06
2023-02-08T16:39:54.043Z,101786.98
2023-02-08T16:42:40.234Z,101785.44
2023-02-08T16:45:09.874Z,101783.89
2023-02-08T16:47:40.089Z,101784.75
2023-02-08T16:50:14.763Z,101784.87
2023-02-08T16:52:43.653Z,101786.54
2023-02-08T16:55:21.360Z,101783.05
2023-02-08T16:57:53.047Z,101781.56
2023-02-08T17:00:23.425Z,101781.19
2023-02-08T17:02:52.951Z,101778.41
2023-02-08T17:05:27.217Z,101773.31
2023-02-08T17:07:56.054Z,101772.52
2023-02-08T17:10:36.925Z,101779.30
2023-02-08T17:13:19.922Z,101777.17
2023-02-08T17:15:54.756Z,101783.05
2023-02-08T17:18:39.478Z,101786.31
2023-02-08T17:21:10.322Z,101789.20
2023-02-08T17:23:44.905Z,101786.19
2023-02-08T17:26:27.584Z,101786.83
2023-02-08T17:28:57.436Z,101785.70
2023-02-08T17:31:29.338Z,101789.98
2023-02-08T17:34:04.690Z,101790.63
2023-02-08T17:36:34.891Z,101789.77
2023-02-08T17:39:05.547Z,101791.42
2023-02-08T17:41:39.286Z,101793.38
2023-02-08T17:44:08.402Z,101792.35
2023-02-08T17:46:42.394Z,101786.65
2023-02-08T17:49:11.355Z,101789.88
2023-02-08T17:51:40.299Z,101792.18
2023-02-08T17:54:17.152Z,101787.41
2023-02-08T17:56:45.631Z,101787.55
2023-02-08T17:59:14.105Z,101791.63
2023-02-08T18:01:46.308Z,101788.90
2023-02-08T18:04:21.465Z,101787.58
2023-02-08T18:06:59.591Z,101783.76
2023-02-08T18:09:28.417Z,101783.39
2023-02-08T18:11:56.702Z,101779.98
2023-02-08T18:14:25.000Z,101785.63
2023-02-08T18:16:53.433Z,101784.34
2023-02-08T18:19:22.412Z,101787.57
2023-02-08T18:21:54.417Z,101788.41
2023-02-08T18:24:22.984Z,101789.01
2023-02-08T18:26:51.363Z,101788.23
2023-02-08T18:29:20.150Z,101787.57
2023-02-08T18:31:50.386Z,101789.88
2023-02-08T18:34:27.640Z,101792.59
2023-02-08T18:36:57.050Z,101791.67
2023-02-08T18:39:25.685Z,101792.48
2023-02-08T18:41:54.941Z,101793.00
2023-02-08T18:44:23.597Z,101793.29
2023-02-08T18:46:53.325Z,101790.48
2023-02-08T18:49:22.480Z,101788.41
2023-02-08T18:51:51.538Z,101787.33
2023-02-08T18:54:23.160Z,101789.21
2023-02-08T18:56:56.164Z,101786.05
2023-02-08T18:59:24.554Z,101784.05
2023-02-08T19:01:55.258Z,101783.36
2023-02-08T19:04:26.295Z,101781.65
2023-02-08T19:06:56.354Z,101790.69
2023-02-08T19:09:24.710Z,101789.14
2023-02-08T19:11:53.108Z,101790.20
2023-02-08T19:14:21.987Z,101788.58
2023-02-08T19:16:50.440Z,101786.55
2023-02-08T19:19:18.887Z,101784.90
2023-02-08T19:21:47.352Z,101785.36
2023-02-08T19:24:15.745Z,101783.33
2023-02-08T19:26:44.143Z,101776.88
2023-02-08T19:29:16.156Z,101773.63
2023-02-08T19:31:46.041Z,101776.77
2023-02-08T19:34:14.712Z,101774.13
2023-02-08T19:36:46.620Z,101776.66
2023-02-08T19:39:24.300Z,101776.63
2023-02-08T19:41:54.281Z,101778.98
2023-02-08T19:44:25.171Z,101779.74
2023-02-08T19:46:55.395Z,101781.66
2023-02-08T19:49:27.324Z,101787.77
2023-02-08T19:52:00.926Z,101787.77
2023-02-08T19:54:29.495Z,101786.38
2023-02-08T19:56:57.964Z,101788.47
2023-02-08T19:59:28.560Z,101785.17
2023-02-08T20:01:57.132Z,101784.00
2023-02-08T20:04:29.718Z,101778.16
2023-02-08T20:06:59.280Z,101772.02
2023-02-08T20:09:28.074Z,101774.52
2023-02-08T20:11:58.075Z,101768.61
2023-02-08T20:14:31.294Z,101761.81
2023-02-08T20:17:02.657Z,101754.06
2023-02-08T20:19:39.859Z,101748.84
2023-02-08T20:22:08.301Z,101745.82
2023-02-08T20:24:40.564Z,101749.83
2023-02-08T20:27:15.085Z,101756.00
2023-02-08T20:29:46.691Z,101757.17
2023-02-08T20:32:15.295Z,101756.29
2023-02-08T20:34:54.131Z,101757.60
2023-02-08T20:37:27.680Z,101755.05
2023-02-08T20:39:58.046Z,101750.98
2023-02-08T20:42:28.860Z,101752.23
2023-02-08T20:44:57.838Z,101743.41
2023-02-08T20:47:27.455Z,101740.45
2023-02-08T20:49:57.705Z,101736.94
2023-02-08T20:52:27.169Z,101733.45
2023-02-08T20:54:55.597Z,101734.44
2023-02-08T20:57:25.316Z,101730.58
2023-02-08T20:59:53.811Z,101734.52
2023-02-08T21:02:23.712Z,101738.76
2023-02-08T21:04:54.917Z,101737.95
2023-02-08T21:07:23.556Z,101736.47
2023-02-08T21:09:51.921Z,101734.45
2023-02-08T21:12:20.371Z,101729.80
2023-02-08T21:14:49.765Z,101725.98
2023-02-08T21:17:18.361Z,101722.83
2023-02-08T21:19:50.780Z,101717.98
2023-02-08T21:22:21.922Z,101717.77
2023-02-08T21:24:52.421Z,101715.02
2023-02-08T21:27:20.952Z,101710.87
2023-02-08T21:29:52.112Z,101712.62
2023-02-08T21:32:20.524Z,101711.76
2023-02-08T21:34:51.031Z,101713.28
2023-02-08T21:37:19.391Z,101715.16
2023-02-08T21:39:50.194Z,101711.49
2023-02-08T21:42:18.685Z,101713.52
2023-02-08T21:44:47.193Z,101711.57
2023-02-08T21:47:15.547Z,101709.41
2023-02-08T21:50:02.633Z,101706.77
2023-02-08T21:52:50.096Z,101705.67
2023-02-08T21:55:18.944Z,101704.09
2023-02-08T21:57:47.196Z,101710.48
2023-02-08T22:00:15.779Z,101709.15
2023-02-08T22:02:44.329Z,101708.02
2023-02-08T22:05:32.602Z,101704.25
2023-02-08T22:08:01.220Z,101697.88
2023-02-08T22:10:32.105Z,101694.91
2023-02-08T22:13:00.998Z,101686.46
2023-02-08T22:15:30.324Z,101685.48
2023-02-08T22:18:01.594Z,101683.32
2023-02-08T22:20:30.652Z,101675.71
2023-02-08T22:22:59.001Z,101673.35
2023-02-08T22:25:27.905Z,101675.73
2023-02-08T22:27:56.419Z,101670.87
2023-02-08T22:30:25.742Z,101666.59
2023-02-08T22:32:57.352Z,101669.36
2023-02-08T22:35:27.571Z,101662.27
2023-02-08T22:37:56.153Z,101662.55
2023-02-08T22:40:24.432Z,101656.98
2023-02-08T22:42:53.951Z,101653.46
2023-02-08T22:45:22.310Z,101658.64
2023-02-08T22:47:50.603Z,101661.06
2023-02-08T22:50:19.404Z,101662.86
2023-02-08T22:52:47.773Z,101666.73
2023-02-08T22:55:16.155Z,101675.44
2023-02-08T22:57:44.566Z,101679.20
2023-02-08T23:00:15.075Z,101679.20
2023-02-08T23:02:44.253Z,101676.63
2023-02-08T23:05:13.139Z,101677.63
2023-02-08T23:07:41.424Z,101674.72
2023-02-08T23:10:10.656Z,101667.17
2023-02-08T23:12:39.668Z,101669.82
2023-02-08T23:15:11.523Z,101668.75
2023-02-08T23:17:39.916Z,101670.11
2023-02-08T23:20:09.791Z,101668.48
2023-02-08T23:22:38.222Z,101665.84
2023-02-08T23:25:09.438Z,101669.93
2023-02-08T23:27:38.993Z,101667.89
2023-02-08T23:30:09.724Z,101662.13
2023-02-08T23:32:40.248Z,101655.45
2023-02-08T23:35:10.062Z,101655.86
2023-02-08T23:37:38.511Z,101654.08
2023-02-08T23:40:07.685Z,101653.66
2023-02-08T23:42:37.063Z,101651.62
2023-02-08T23:45:09.139Z,101645.09
2023-02-08T23:47:39.398Z,101641.73
2023-02-08T23:50:08.939Z,101641.66
2023-02-08T23:52:37.716Z,101644.41
2023-02-08T23:55:27.327Z,101641.70
2023-02-08T23:58:08.365Z,101646.92
